sensor_id;sensor_type;location;lat;lon;timestamp;pressure;altitude;pressure_sealevel;temperature;humidity
50650;BME280;36621;60.058;30.346;2022-10-16T00:00:35;101431.03;;;14.29;56.60
50650;BME280;36621;60.058;30.346;2022-10-16T00:08:08;101429.13;;;14.30;56.94
50650;BME280;36621;60.058;30.346;2022-10-16T00:15:41;101424.75;;;14.29;57.03
50650;BME280;36621;60.058;30.346;2022-10-16T00:23:15;101425.56;;;14.29;56.50
50650;BME280;36621;60.058;30.346;2022-10-16T00:30:48;101432.75;;;14.20;56.55
50650;BME280;36621;60.058;30.346;2022-10-16T00:38:20;101433.03;;;14.13;56.53
50650;BME280;36621;60.058;30.346;2022-10-16T00:45:52;101429.47;;;14.02;57.06
50650;BME280;36621;60.058;30.346;2022-10-16T00:53:25;101425.09;;;13.96;56.39
50650;BME280;36621;60.058;30.346;2022-10-16T01:00:57;101417.97;;;14.05;56.86
50650;BME280;36621;60.058;30.346;2022-10-16T01:08:32;101408.88;;;14.05;57.56
50650;BME280;36621;60.058;30.346;2022-10-16T01:16:07;101420.47;;;13.92;57.34
50650;BME280;36621;60.058;30.346;2022-10-16T01:23:43;101419.94;;;13.89;57.13
50650;BME280;36621;60.058;30.346;2022-10-16T01:31:22;101411.97;;;13.83;57.26
50650;BME280;36621;60.058;30.346;2022-10-16T01:38:56;101415.25;;;13.85;57.73
50650;BME280;36621;60.058;30.346;2022-10-16T01:46:30;101412.78;;;13.88;57.38
50650;BME280;36621;60.058;30.346;2022-10-16T01:54:04;101421.56;;;13.80;57.66
50650;BME280;36621;60.058;30.346;2022-10-16T02:01:38;101408.13;;;13.73;57.55
50650;BME280;36621;60.058;30.346;2022-10-16T02:09:11;101402.91;;;13.72;57.48
50650;BME280;36621;60.058;30.346;2022-10-16T02:16:45;101401.59;;;13.69;57.40
50650;BME280;36621;60.058;30.346;2022-10-16T02:24:18;101395.25;;;13.69;57.39
50650;BME280;36621;60.058;30.346;2022-10-16T02:31:55;101392.84;;;13.52;57.20
50650;BME280;36621;60.058;30.346;2022-10-16T02:39:30;101381.28;;;13.24;58.23
50650;BME280;36621;60.058;30.346;2022-10-16T02:47:03;101382.91;;;13.20;57.83
50650;BME280;36621;60.058;30.346;2022-10-16T02:54:35;101381.31;;;13.09;57.88
50650;BME280;36621;60.058;30.346;2022-10-16T03:02:08;101380.19;;;13.05;57.95
50650;BME280;36621;60.058;30.346;2022-10-16T03:09:40;101374.16;;;12.97;57.85
50650;BME280;36621;60.058;30.346;2022-10-16T03:17:12;101360.19;;;12.99;58.37
50650;BME280;36621;60.058;30.346;2022-10-16T03:24:45;101368.13;;;13.11;57.97
50650;BME280;36621;60.058;30.346;2022-10-16T03:32:19;101364.56;;;13.15;57.96
50650;BME280;36621;60.058;30.346;2022-10-16T03:39:51;101362.66;;;13.11;58.17
50650;BME280;36621;60.058;30.346;2022-10-16T03:47:24;101363.75;;;13.25;58.33
50650;BME280;36621;60.058;30.346;2022-10-16T03:54:56;101358.00;;;13.37;57.78
50650;BME280;36621;60.058;30.346;2022-10-16T04:02:29;101368.13;;;13.31;58.09
50650;BME280;36621;60.058;30.346;2022-10-16T04:10:03;101361.00;;;13.30;58.58
50650;BME280;36621;60.058;30.346;2022-10-16T04:17:36;101353.59;;;13.15;58.12
50650;BME280;36621;60.058;30.346;2022-10-16T04:25:08;101359.09;;;12.95;58.03
50650;BME280;36621;60.058;30.346;2022-10-16T04:32:47;101341.78;;;12.74;58.92
50650;BME280;36621;60.058;30.346;2022-10-16T04:40:20;101348.91;;;12.69;58.77
50650;BME280;36621;60.058;30.346;2022-10-16T04:47:56;101339.59;;;12.60;58.96
50650;BME280;36621;60.058;30.346;2022-10-16T04:55:28;101319.84;;;12.43;59.75
50650;BME280;36621;60.058;30.346;2022-10-16T05:03:00;101310.75;;;12.32;59.53
50650;BME280;36621;60.058;30.346;2022-10-16T05:10:33;101320.97;;;12.57;59.08
50650;BME280;36621;60.058;30.346;2022-10-16T05:18:06;101322.34;;;12.75;59.09
50650;BME280;36621;60.058;30.346;2022-10-16T05:25:38;101336.88;;;12.76;58.74
50650;BME280;36621;60.058;30.346;2022-10-16T05:33:11;101326.72;;;12.76;58.40
50650;BME280;36621;60.058;30.346;2022-10-16T05:40:43;101321.53;;;12.75;58.85
50650;BME280;36621;60.058;30.346;2022-10-16T05:48:24;101319.63;;;12.91;58.75
50650;BME280;36621;60.058;30.346;2022-10-16T05:55:58;101307.84;;;13.00;58.15
50650;BME280;36621;60.058;30.346;2022-10-16T06:03:34;101308.41;;;12.87;58.65
50650;BME280;36621;60.058;30.346;2022-10-16T06:11:06;101311.94;;;13.03;58.38
50650;BME280;36621;60.058;30.346;2022-10-16T06:18:40;101317.69;;;13.07;57.48
50650;BME280;36621;60.058;30.346;2022-10-16T06:26:13;101321.53;;;13.06;57.95
50650;BME280;36621;60.058;30.346;2022-10-16T06:33:49;101309.50;;;13.01;57.67
50650;BME280;36621;60.058;30.346;2022-10-16T06:41:22;101288.91;;;12.94;58.11
50650;BME280;36621;60.058;30.346;2022-10-16T06:48:55;101290.03;;;12.88;58.01
50650;BME280;36621;60.058;30.346;2022-10-16T06:56:27;101294.66;;;12.92;57.66
50650;BME280;36621;60.058;30.346;2022-10-16T07:04:01;101291.38;;;13.00;57.78
50650;BME280;36621;60.058;30.346;2022-10-16T07:11:33;101278.78;;;13.05;57.53
50650;BME280;36621;60.058;30.346;2022-10-16T07:19:05;101260.66;;;13.19;57.69
50650;BME280;36621;60.058;30.346;2022-10-16T07:26:37;101272.69;;;13.33;57.35
50650;BME280;36621;60.058;30.346;2022-10-16T07:34:11;101263.88;;;13.62;57.19
50650;BME280;36621;60.058;30.346;2022-10-16T07:41:44;101277.50;;;13.78;57.92
50650;BME280;36621;60.058;30.346;2022-10-16T07:49:16;101276.22;;;14.20;56.92
50650;BME280;36621;60.058;30.346;2022-10-16T07:56:48;101254.09;;;14.40;56.33
50650;BME280;36621;60.058;30.346;2022-10-16T08:04:20;101233.81;;;14.31;56.22
50650;BME280;36621;60.058;30.346;2022-10-16T08:11:52;101243.53;;;14.18;55.81
50650;BME280;36621;60.058;30.346;2022-10-16T08:19:24;101236.72;;;13.61;56.05
50650;BME280;36621;60.058;30.346;2022-10-16T08:26:56;101247.41;;;13.62;56.46
50650;BME280;36621;60.058;30.346;2022-10-16T08:34:29;101241.59;;;13.74;56.23
50650;BME280;36621;60.058;30.346;2022-10-16T08:42:06;101231.50;;;14.09;55.67
50650;BME280;36621;60.058;30.346;2022-10-16T08:49:42;101222.88;;;14.26;55.54
50650;BME280;36621;60.058;30.346;2022-10-16T08:57:20;101216.16;;;14.42;55.58
50650;BME280;36621;60.058;30.346;2022-10-16T09:04:55;101214.41;;;14.57;55.66
50650;BME280;36621;60.058;30.346;2022-10-16T09:12:33;101203.66;;;14.61;54.98
50650;BME280;36621;60.058;30.346;2022-10-16T09:20:19;101203.19;;;14.53;54.18
50650;BME280;36621;60.058;30.346;2022-10-16T09:27:54;101198.41;;;14.30;54.96
50650;BME280;36621;60.058;30.346;2022-10-16T09:35:32;101198.13;;;14.31;54.48
50650;BME280;36621;60.058;30.346;2022-10-16T09:43:14;101198.59;;;14.38;55.65
50650;BME280;36621;60.058;30.346;2022-10-16T09:50:55;101193.22;;;14.63;54.71
50650;BME280;36621;60.058;30.346;2022-10-16T09:58:27;101184.06;;;14.72;54.02
50650;BME280;36621;60.058;30.346;2022-10-16T10:06:00;101201.22;;;14.59;54.58
50650;BME280;36621;60.058;30.346;2022-10-16T10:13:35;101211.66;;;14.62;54.56
50650;BME280;36621;60.058;30.346;2022-10-16T10:21:15;101215.53;;;14.56;54.64
50650;BME280;36621;60.058;30.346;2022-10-16T10:28:51;101205.16;;;14.48;55.05
50650;BME280;36621;60.058;30.346;2022-10-16T10:36:28;101200.84;;;14.31;55.67
50650;BME280;36621;60.058;30.346;2022-10-16T10:44:03;101196.41;;;14.40;55.20
50650;BME280;36621;60.058;30.346;2022-10-16T10:51:40;101188.59;;;14.53;55.69
50650;BME280;36621;60.058;30.346;2022-10-16T10:59:32;101189.97;;;14.55;55.72
50650;BME280;36621;60.058;30.346;2022-10-16T11:07:10;101187.31;;;14.45;55.39
50650;BME280;36621;60.058;30.346;2022-10-16T11:14:46;101171.13;;;14.44;55.52
50650;BME280;36621;60.058;30.346;2022-10-16T11:22:22;101177.13;;;14.46;56.03
50650;BME280;36621;60.058;30.346;2022-10-16T11:29:58;101175.22;;;14.46;55.56
50650;BME280;36621;60.058;30.346;2022-10-16T11:37:32;101192.56;;;14.41;55.68
50650;BME280;36621;60.058;30.346;2022-10-16T11:45:13;101194.84;;;14.29;55.69
50650;BME280;36621;60.058;30.346;2022-10-16T11:52:55;101197.91;;;14.22;56.33
50650;BME280;36621;60.058;30.346;2022-10-16T12:00:30;101191.09;;;14.20;56.30
50650;BME280;36621;60.058;30.346;2022-10-16T12:08:08;101181.50;;;14.17;56.87
50650;BME280;36621;60.058;30.346;2022-10-16T12:15:41;101183.19;;;14.08;56.64
50650;BME280;36621;60.058;30.346;2022-10-16T12:23:19;101175.22;;;14.06;56.72
50650;BME280;36621;60.058;30.346;2022-10-16T12:30:57;101168.94;;;14.01;58.32
50650;BME280;36621;60.058;30.346;2022-10-16T12:38:32;101167.06;;;14.01;57.96
50650;BME280;36621;60.058;30.346;2022-10-16T12:46:22;101161.28;;;14.03;58.32
50650;BME280;36621;60.058;30.346;2022-10-16T12:53:59;101150.00;;;14.04;59.12
50650;BME280;36621;60.058;30.346;2022-10-16T13:01:37;101141.22;;;14.02;58.96
50650;BME280;36621;60.058;30.346;2022-10-16T13:17:08;101132.78;;;13.94;59.49
50650;BME280;36621;60.058;30.346;2022-10-16T13:24:48;101127.03;;;13.90;59.27
50650;BME280;36621;60.058;30.346;2022-10-16T13:32:26;101118.75;;;13.95;59.03
50650;BME280;36621;60.058;30.346;2022-10-16T13:40:09;101128.31;;;14.03;59.28
50650;BME280;36621;60.058;30.346;2022-10-16T13:48:00;101131.16;;;13.93;60.32
50650;BME280;36621;60.058;30.346;2022-10-16T13:55:33;101130.31;;;13.92;59.89
50650;BME280;36621;60.058;30.346;2022-10-16T14:03:07;101121.47;;;14.00;59.92
50650;BME280;36621;60.058;30.346;2022-10-16T14:10:46;101120.31;;;14.06;60.04
50650;BME280;36621;60.058;30.346;2022-10-16T14:18:20;101131.31;;;14.06;60.41
50650;BME280;36621;60.058;30.346;2022-10-16T14:25:53;101125.28;;;14.04;60.29
50650;BME280;36621;60.058;30.346;2022-10-16T14:33:32;101125.00;;;14.06;60.16
50650;BME280;36621;60.058;30.346;2022-10-16T14:41:05;101131.31;;;14.06;60.91
50650;BME280;36621;60.058;30.346;2022-10-16T14:48:41;101107.16;;;14.09;60.87
50650;BME280;36621;60.058;30.346;2022-10-16T14:56:16;101118.72;;;14.00;61.47
50650;BME280;36621;60.058;30.346;2022-10-16T15:03:49;101115.41;;;14.03;60.59
50650;BME280;36621;60.058;30.346;2022-10-16T15:11:26;101116.47;;;14.07;60.88
50650;BME280;36621;60.058;30.346;2022-10-16T15:18:59;101113.22;;;14.05;61.25
50650;BME280;36621;60.058;30.346;2022-10-16T15:26:31;101113.25;;;14.00;61.05
50650;BME280;36621;60.058;30.346;2022-10-16T15:34:04;101108.56;;;14.01;61.15
50650;BME280;36621;60.058;30.346;2022-10-16T15:41:37;101096.25;;;13.98;61.50
50650;BME280;36621;60.058;30.346;2022-10-16T15:49:10;101102.84;;;13.97;61.88
50650;BME280;36621;60.058;30.346;2022-10-16T15:56:43;101086.88;;;13.99;62.13
50650;BME280;36621;60.058;30.346;2022-10-16T16:04:18;101083.56;;;14.02;62.07
50650;BME280;36621;60.058;30.346;2022-10-16T16:11:51;101081.88;;;14.06;61.87
50650;BME280;36621;60.058;30.346;2022-10-16T16:19:24;101054.97;;;14.09;62.23
50650;BME280;36621;60.058;30.346;2022-10-16T16:26:56;101062.09;;;14.10;61.77
50650;BME280;36621;60.058;30.346;2022-10-16T16:34:29;101069.00;;;14.07;61.88
50650;BME280;36621;60.058;30.346;2022-10-16T16:42:00;101070.31;;;14.10;62.86
50650;BME280;36621;60.058;30.346;2022-10-16T16:49:36;101048.09;;;14.11;62.41
50650;BME280;36621;60.058;30.346;2022-10-16T16:57:08;101038.50;;;14.09;62.45
50650;BME280;36621;60.058;30.346;2022-10-16T17:04:40;101036.00;;;14.12;62.96
50650;BME280;36621;60.058;30.346;2022-10-16T17:12:12;101012.97;;;14.08;63.30
50650;BME280;36621;60.058;30.346;2022-10-16T17:19:45;101013.50;;;14.10;63.66
50650;BME280;36621;60.058;30.346;2022-10-16T17:27:17;101005.50;;;14.14;63.41
50650;BME280;36621;60.058;30.346;2022-10-16T17:34:49;100988.91;;;14.00;64.34
50650;BME280;36621;60.058;30.346;2022-10-16T17:42:21;100974.59;;;14.03;64.57
50650;BME280;36621;60.058;30.346;2022-10-16T17:49:54;100954.84;;;14.01;64.27
50650;BME280;36621;60.058;30.346;2022-10-16T17:57:28;100957.72;;;14.15;64.20
50650;BME280;36621;60.058;30.346;2022-10-16T18:05:01;100959.25;;;14.26;64.19
50650;BME280;36621;60.058;30.346;2022-10-16T18:12:36;100924.66;;;14.25;64.48
50650;BME280;36621;60.058;30.346;2022-10-16T18:20:09;100919.47;;;14.23;63.99
50650;BME280;36621;60.058;30.346;2022-10-16T18:27:41;100890.31;;;14.28;63.79
50650;BME280;36621;60.058;30.346;2022-10-16T18:35:14;100909.28;;;14.24;64.29
50650;BME280;36621;60.058;30.346;2022-10-16T18:42:47;100923.94;;;14.38;63.96
50650;BME280;36621;60.058;30.346;2022-10-16T18:50:28;100933.22;;;14.42;64.24
50650;BME280;36621;60.058;30.346;2022-10-16T18:58:00;100913.66;;;14.49;63.91
50650;BME280;36621;60.058;30.346;2022-10-16T19:05:34;100903.47;;;14.50;63.77
50650;BME280;36621;60.058;30.346;2022-10-16T19:13:06;100886.19;;;14.49;64.13
50650;BME280;36621;60.058;30.346;2022-10-16T19:20:39;100865.47;;;14.57;63.88
50650;BME280;36621;60.058;30.346;2022-10-16T19:28:11;100864.59;;;14.62;63.79
50650;BME280;36621;60.058;30.346;2022-10-16T19:35:44;100879.09;;;14.67;63.91
50650;BME280;36621;60.058;30.346;2022-10-16T19:43:15;100860.88;;;14.71;64.10
50650;BME280;36621;60.058;30.346;2022-10-16T19:50:50;100863.56;;;14.76;63.90
50650;BME280;36621;60.058;30.346;2022-10-16T19:58:24;100835.50;;;14.80;63.98
50650;BME280;36621;60.058;30.346;2022-10-16T20:05:57;100805.31;;;14.74;64.24
50650;BME280;36621;60.058;30.346;2022-10-16T20:13:35;100806.38;;;14.79;63.76
50650;BME280;36621;60.058;30.346;2022-10-16T20:21:09;100799.66;;;14.85;63.72
50650;BME280;36621;60.058;30.346;2022-10-16T20:28:41;100768.56;;;14.89;63.90
50650;BME280;36621;60.058;30.346;2022-10-16T20:36:15;100761.63;;;14.92;64.33
50650;BME280;36621;60.058;30.346;2022-10-16T20:43:49;100744.53;;;14.95;64.10
50650;BME280;36621;60.058;30.346;2022-10-16T20:51:23;100728.06;;;14.95;63.89
50650;BME280;36621;60.058;30.346;2022-10-16T20:58:55;100735.38;;;15.00;63.77
50650;BME280;36621;60.058;30.346;2022-10-16T21:06:29;100738.50;;;14.93;64.52
50650;BME280;36621;60.058;30.346;2022-10-16T22:04:46;100696.66;;;14.30;68.11
50650;BME280;36621;60.058;30.346;2022-10-16T22:12:21;100672.78;;;14.12;69.43
